Latest Weather Observations for Coles Point

IDS60801

Issued at 3:35 pm CST Tuesday 23 September 2014 (issued every 30 minutes, with the page automatically refreshed every 10 minutes)

About weather observations | Map of weather stations | Latest weather observations for SA | Other Formats
Station Details ID: 018191 Name: COLES POINT Lat: -34.37 Lon: 135.37 Height: 28.0 m
Data from the previous 72 hours. | See also: Recent months at Coles Point
Date/Time
CST
Temp
°C
App
Temp
°C
Dew
Point
Rel
Hum
%
Delta-T
°C
Wind Press
QNH
hPa
Press
MSL
hPa
Rain
since 9 am
mm
Dir
 
Spd
km/h
Gust
km/h
Spd
kts
Gust
kts
23/03:30pm 25.4 23.8 8.8 35 9.0 N 7 15 4 8 1012.0 1012.0 0.0
23/03:00pm 24.8 23.3 8.3 35 8.8 SW 6 9 3 5 1012.5 1012.5 0.0
23/02:30pm 24.1 21.5 7.7 35 8.6 SW 11 15 6 8 1012.9 1012.9 0.0
23/02:00pm 23.6 21.9 7.7 36 8.4 SW 6 9 3 5 1013.3 1013.3 0.0
23/01:30pm 23.6 21.7 9.2 40 7.8 SW 9 11 5 6 1013.7 1013.7 0.0
23/01:00pm 23.0 20.9 9.8 43 7.2 SW 11 13 6 7 1014.2 1014.2 0.0
23/12:30pm 25.8 21.7 7.9 32 9.6 N 19 32 10 17 1014.6 1014.6 0.0
23/12:00pm 25.4 21.5 8.8 35 9.0 NE 19 26 10 14 1015.1 1015.1 0.0
23/11:30am 24.5 20.4 8.5 36 8.6 NE 20 30 11 16 1015.5 1015.5 0.0
23/11:00am 23.9 19.8 8.7 38 8.1 NE 20 28 11 15 1016.0 1016.0 0.0
23/10:30am 22.8 18.6 8.1 39 7.7 NNE 20 30 11 16 1016.4 1016.4 0.0
23/10:00am 22.2 18.0 8.3 41 7.3 NNE 20 28 11 15 1016.8 1016.8 0.0
23/09:30am 20.7 16.6 7.7 43 6.7 NNE 19 24 10 13 1017.0 1017.0 0.0
23/09:00am 19.2 15.5 6.3 43 6.4 NNE 15 22 8 12 1017.3 1017.3 0.0
23/08:30am 17.9 14.2 4.5 41 6.4 NNE 13 17 7 9 1017.6 1017.6 0.0
23/08:00am 15.1 12.3 5.0 51 4.8 ENE 9 11 5 6 1017.7 1017.7 0.0
23/07:30am 13.0 10.1 4.7 57 3.8 ENE 9 9 5 5 1017.5 1017.5 0.0
23/07:00am 10.1 6.9 3.2 62 3.0 NNE 9 11 5 6 1017.3 1017.3 0.0
23/06:30am 11.5 6.8 1.2 49 4.3 N 15 15 8 8 1017.0 1017.0 0.0
23/06:00am 11.3 6.2 1.0 49 4.3 N 17 19 9 10 1016.7 1016.7 0.0
23/05:30am 11.5 7.3 1.7 51 4.2 NNE 13 15 7 8 1016.5 1016.5 0.0
23/05:00am 9.6 6.3 2.5 61 3.0 NE 9 9 5 5 1016.4 1016.4 0.0
23/04:30am 8.5 4.6 1.4 61 2.9 NNE 11 13 6 7 1016.2 1016.2 0.0
23/04:00am 10.3 5.8 2.4 58 3.4 NNE 15 17 8 9 1016.4 1016.4 0.0
23/03:30am 10.8 5.9 1.9 54 3.8 N 17 20 9 11 1016.4 1016.4 0.0
23/03:00am 10.5 5.9 1.6 54 3.7 NNE 15 17 8 9 1016.5 1016.5 0.0
23/02:30am 11.1 6.1 1.4 51 4.1 NNE 17 20 9 11 1016.8 1016.8 0.0
23/02:00am 11.5 6.6 1.7 51 4.2 NNE 17 20 9 11 1017.2 1017.2 0.0
23/01:30am 11.7 6.8 2.2 52 4.1 NE 17 19 9 10 1017.5 1017.5 0.0
23/01:00am 11.4 6.4 1.4 50 4.2 NNE 17 19 9 10 1018.0 1018.0 0.0
23/12:30am 12.3 7.3 1.3 47 4.7 NNE 17 19 9 10 1018.2 1018.2 0.0
23/12:00am 12.7 7.4 2.0 48 4.6 NNE 19 19 10 10 1018.5 1018.4 0.0
 
Date/Time
CST
Temp
°C
App
Temp
°C
Dew
Point
Rel
Hum
%
Delta-T
°C
Wind Press
QNH
hPa
Press
MSL
hPa
Rain
since 9 am
mm
Dir
 
Spd
km/h
Gust
km/h
Spd
kts
Gust
kts
22/11:30pm 13.1 8.2 1.8 46 4.9 NNE 17 19 9 10 1018.5 1018.4 0.0
22/11:00pm 13.4 8.0 1.4 44 5.2 NNE 19 20 10 11 1018.5 1018.4 0.0
22/10:30pm 14.4 9.1 1.7 42 5.5 NNE 19 20 10 11 1018.7 1018.6 0.0
22/10:00pm 15.0 9.7 1.9 41 5.8 NNE 19 22 10 12 1018.7 1018.6 0.0
22/09:30pm 15.3 10.2 2.8 43 5.6 NNE 19 19 10 10 1018.9 1018.8 0.0
22/09:00pm 15.9 10.7 3.4 43 5.7 NE 20 22 11 12 1018.9 1018.8 0.0
22/08:30pm 15.7 10.9 2.8 42 5.8 NE 17 19 9 10 1018.8 1018.7 0.0
22/08:00pm 16.6 12.1 2.2 38 6.5 NE 15 17 8 9 1018.6 1018.5 0.0
22/07:30pm 16.5 13.7 3.2 41 6.1 NE 7 7 4 4 1018.2 1018.2 0.0
22/07:00pm 19.8 16.8 0.8 28 8.5 NE 6 9 3 5 1017.7 1017.7 0.0
22/06:30pm 20.1 16.1 -2.3 22 9.4 N 9 9 5 5 1017.3 1017.3 0.0
22/06:00pm 22.1 17.8 -1.9 20 10.4 N 11 13 6 7 1017.1 1017.1 0.0
22/05:30pm 24.6 19.0 -2.9 16 11.9 NNE 17 22 9 12 1017.1 1017.1 0.0
22/05:00pm 25.8 18.8 -6.9 11 13.3 N 22 32 12 17 1016.9 1016.9 0.0
22/04:30pm 26.4 18.6 -7.6 10 13.7 NNE 26 33 14 18 1017.1 1017.1 0.0
22/04:00pm 26.6 19.2 -7.5 10 13.9 NNE 24 35 13 19 1017.0 1017.0 0.0
22/03:30pm 26.6 18.3 -8.8 9 14.0 NNE 28 35 15 19 1017.3 1017.3 0.0
22/03:00pm 27.0 18.2 -10.0 8 14.4 NNE 30 41 16 22 1017.5 1017.5 0.0
22/02:30pm 27.2 19.6 -5.8 11 13.9 NNE 26 41 14 22 1017.9 1017.9 0.0
22/02:00pm 26.2 18.1 -6.5 11 13.5 NNE 28 39 15 21 1018.1 1018.1 0.0
22/01:30pm 26.3 18.3 -5.3 12 13.3 N 28 39 15 21 1018.6 1018.5 0.0
22/01:00pm 26.0 19.4 -3.5 14 12.8 N 22 33 12 18 1019.1 1019.0 0.0
22/12:30pm 24.7 17.6 -1.2 18 11.6 NNE 26 37 14 20 1019.7 1019.6 0.0
22/12:00pm 24.5 17.4 -1.3 18 11.5 NNE 26 35 14 19 1020.4 1020.4 0.0
22/11:30am 24.3 16.7 -2.3 17 11.6 N 28 35 15 19 1020.9 1020.9 0.0
22/11:00am 23.9 16.9 -0.4 20 11.0 NNE 26 39 14 21 1021.4 1021.4 0.0
22/10:30am 22.9 14.7 -1.2 20 10.6 NNE 32 44 17 24 1021.7 1021.7 0.0
22/10:00am 22.0 14.9 1.1 25 9.6 NNE 28 37 15 20 1022.2 1022.2 0.0
22/09:30am 19.4 13.8 3.2 34 7.6 NNE 22 33 12 18 1022.5 1022.5 0.0
22/09:00am 17.5 11.3 2.3 36 6.9 NE 24 30 13 16 1022.7 1022.7 0.0
22/08:30am 15.2 9.6 3.7 46 5.2 NE 22 28 12 15 1022.7 1022.7 0.0
22/08:00am 12.7 6.8 3.9 55 4.0 NE 24 28 13 15 1022.7 1022.7 0.0
22/07:30am 11.5 5.8 3.0 56 3.7 NE 22 28 12 15 1022.8 1022.8 0.0
22/07:00am 10.2 4.5 2.6 59 3.3 NE 22 26 12 14 1022.7 1022.7 0.0
22/06:30am 8.9 2.7 2.0 62 2.9 NE 24 26 13 14 1022.6 1022.6 0.0
22/06:00am 8.5 2.3 1.9 63 2.7 NNE 24 28 13 15 1022.5 1022.5 0.0
22/05:30am 9.0 2.8 2.1 62 2.9 NNE 24 26 13 14 1022.3 1022.3 0.0
22/05:00am 9.8 3.6 1.9 58 3.3 NNE 24 26 13 14 1022.1 1022.1 0.0
22/04:30am 9.9 4.0 2.0 58 3.3 NNE 22 26 12 14 1022.1 1022.1 0.0
22/04:00am 10.7 4.9 2.3 56 3.6 NNE 22 26 12 14 1022.1 1022.1 0.0
22/03:30am 11.2 6.0 3.3 58 3.5 NNE 20 24 11 13 1022.4 1022.4 0.0
22/03:00am 10.2 5.4 5.8 74 2.0 NE 20 22 11 12 1022.4 1022.4 0.0
22/02:30am 10.6 5.7 4.3 65 2.8 NNE 19 20 10 11 1022.7 1022.7 0.0
22/02:00am 10.6 5.8 4.5 66 2.7 NNE 19 20 10 11 1023.0 1023.0 0.0
22/01:30am 10.9 6.4 4.4 64 2.9 NNE 17 20 9 11 1023.4 1023.4 0.0
22/01:00am 13.1 8.0 4.3 55 4.0 NNE 20 26 11 14 1023.7 1023.7 0.0
22/12:30am 12.8 7.7 4.3 56 3.8 N 20 24 11 13 1024.1 1024.1 0.0
22/12:00am 13.2 8.3 4.1 54 4.1 NNE 19 22 10 12 1024.2 1024.2 0.0
 
Date/Time
CST
Temp
°C
App
Temp
°C
Dew
Point
Rel
Hum
%
Delta-T
°C
Wind Press
QNH
hPa
Press
MSL
hPa
Rain
since 9 am
mm
Dir
 
Spd
km/h
Gust
km/h
Spd
kts
Gust
kts
21/11:30pm 13.0 8.1 3.9 54 4.1 NNE 19 20 10 11 1024.6 1024.6 0.0
21/11:00pm 13.4 8.9 4.0 53 4.3 NNE 17 22 9 12 1024.7 1024.7 0.0
21/10:30pm 13.3 8.8 4.2 54 4.1 NNE 17 20 9 11 1024.8 1024.8 0.0
21/10:00pm 14.1 10.1 4.7 53 4.4 NNE 15 19 8 10 1024.9 1024.9 0.0
21/09:30pm 15.3 10.8 4.4 48 5.0 NNE 17 22 9 12 1024.9 1024.9 0.0
21/09:00pm 15.9 11.0 4.3 46 5.4 NE 19 26 10 14 1025.0 1025.0 0.0
21/08:30pm 15.7 11.6 4.1 46 5.4 NE 15 19 8 10 1024.9 1024.9 0.0
21/08:00pm 16.0 12.3 4.4 46 5.4 NNE 13 17 7 9 1024.7 1024.7 0.0
21/07:30pm 17.0 12.7 3.3 40 6.3 NNE 15 20 8 11 1024.5 1024.5 0.0
21/07:00pm 17.6 13.6 2.8 37 6.8 NE 13 17 7 9 1024.4 1024.4 0.0
21/06:30pm 18.9 14.0 1.9 32 7.7 ENE 17 24 9 13 1024.2 1024.2 0.0
21/06:00pm 20.3 15.9 2.6 31 8.2 ENE 15 22 8 12 1024.1 1024.1 0.0
21/05:30pm 22.1 17.0 3.3 29 9.0 ENE 19 26 10 14 1024.1 1024.1 0.0
21/05:00pm 23.7 18.7 3.6 27 9.8 ENE 19 26 10 14 1024.0 1024.0 0.0
21/04:30pm 24.4 21.2 3.1 25 10.3 ESE 9 17 5 9 1024.0 1024.0 0.0
21/04:00pm 24.5 20.7 2.0 23 10.7 S 11 15 6 8 1024.2 1024.2 0.0
21/03:30pm 24.1 19.6 2.3 24 10.4 SW 15 17 8 9 1024.2 1024.2 0.0
21/03:00pm 22.7 18.7 2.8 27 9.4 SSW 13 15 7 8 1024.6 1024.6 0.0
21/02:30pm 22.1 18.6 5.5 34 8.3 WSW 13 17 7 9 1025.0 1025.0 0.0
21/02:00pm 23.2 19.0 3.7 28 9.5 W 15 20 8 11 1025.2 1025.2 0.0
21/01:30pm 23.6 19.4 1.9 24 10.2 W 13 19 7 10 1025.5 1025.5 0.0
21/01:00pm 23.5 19.7 1.8 24 10.2 WNW 11 13 6 7 1025.9 1025.9 0.0
21/12:30pm 24.1 21.0 3.4 26 10.0 NW 9 13 5 7 1026.3 1026.3 0.0
21/12:00pm 22.8 19.4 3.9 29 9.2 NE 11 19 6 10 1026.8 1026.8 0.0
21/11:30am 21.8 17.6 3.9 31 8.6 NE 15 19 8 10 1027.3 1027.3 0.0
21/11:00am 20.9 16.5 4.5 34 8.0 NE 17 20 9 11 1027.6 1027.6 0.0
21/10:30am 20.2 15.8 4.7 36 7.5 NE 17 22 9 12 1028.0 1028.0 0.0
21/10:00am 18.9 14.1 5.4 41 6.6 NE 20 28 11 15 1028.1 1028.1 0.0
21/09:30am 17.7 12.3 4.6 42 6.2 NE 22 28 12 15 1028.2 1028.2 0.0
21/09:00am 16.0 10.8 5.6 50 5.0 NE 22 28 12 15 1028.2 1028.2 0.0
21/08:30am 14.4 8.9 5.7 56 4.1 NE 24 30 13 16 1028.1 1028.1 0.0
21/08:00am 13.5 8.5 6.4 62 3.4 NE 22 28 12 15 1028.1 1028.1 0.0
21/07:30am 12.4 7.3 6.2 66 2.9 NE 22 26 12 14 1027.8 1027.8 0.0
21/07:00am 11.5 6.4 5.8 68 2.7 NNE 22 26 12 14 1027.6 1027.6 0.0
21/06:30am 11.3 5.7 5.4 67 2.7 NNE 24 26 13 14 1027.1 1027.1 0.0
21/06:00am 11.7 6.8 5.3 65 2.9 NNE 20 24 11 13 1026.7 1026.7 0.0
21/05:30am 11.7 7.0 5.3 65 2.9 NNE 19 20 10 11 1026.5 1026.5 0.0
21/05:00am 11.0 6.5 6.0 71 2.3 NNE 19 20 10 11 1026.2 1026.2 0.0
21/04:30am 11.4 7.4 6.5 72 2.3 NNE 17 19 9 10 1025.9 1025.9 0.0
21/04:00am 11.3 7.7 6.6 73 2.2 NNE 15 19 8 10 1025.6 1025.6 0.0
21/03:30am 11.2 7.2 6.7 74 2.1 NNE 17 19 9 10 1025.5 1025.5 0.0
21/03:00am 11.7 7.7 6.6 71 2.4 NNE 17 19 9 10 1025.6 1025.6 0.0
21/02:30am 12.0 8.0 6.5 69 2.6 NNE 17 20 9 11 1025.7 1025.7 0.0
21/02:00am 13.2 9.2 6.5 64 3.2 NNE 17 19 9 10 1025.7 1025.7 0.0
21/01:30am 13.2 9.1 6.3 63 3.3 NNE 17 20 9 11 1025.9 1025.9 0.0
21/01:00am 14.2 10.1 6.3 59 3.8 NE 17 20 9 11 1026.1 1026.1 0.0
21/12:30am 13.1 9.9 6.9 66 3.0 NNE 13 15 7 8 1026.2 1026.2 0.0
21/12:00am 12.6 8.9 6.4 66 2.9 NNE 15 17 8 9 1026.2 1026.2 0.0
 
Date/Time
CST
Temp
°C
App
Temp
°C
Dew
Point
Rel
Hum
%
Delta-T
°C
Wind Press
QNH
hPa
Press
MSL
hPa
Rain
since 9 am
mm
Dir
 
Spd
km/h
Gust
km/h
Spd
kts
Gust
kts
20/11:30pm 13.9 9.7 5.8 58 3.8 NE 17 20 9 11 1026.3 1026.3 0.0
20/11:00pm 13.1 9.2 5.5 60 3.6 NNE 15 17 8 9 1026.3 1026.3 0.0
20/10:30pm 13.9 10.3 4.8 54 4.2 NE 13 17 7 9 1026.3 1026.3 0.0
20/10:00pm 13.0 9.3 4.4 56 3.9 NNE 13 15 7 8 1026.4 1026.4 0.0
20/09:30pm 13.9 10.2 4.2 52 4.4 NE 13 15 7 8 1026.2 1026.2 0.0
20/09:00pm 14.4 10.8 5.0 53 4.4 NE 13 17 7 9 1026.2 1026.2 0.0
20/08:30pm 13.9 11.1 5.3 56 4.0 NE 9 17 5 9 1026.0 1026.0 0.0
20/08:00pm 14.9 11.3 4.9 51 4.7 ENE 13 19 7 10 1025.8 1025.8 0.0
20/07:30pm 13.2 10.0 4.9 57 3.8 ENE 11 13 6 7 1025.4 1025.4 0.0
20/07:00pm 13.2 10.6 6.1 62 3.4 E 9 9 5 5 1025.0 1025.0 0.0
20/06:30pm 14.7 12.3 7.0 60 3.7 E 9 11 5 6 1024.6 1024.6 0.0
20/06:00pm 17.5 14.8 7.5 52 5.0 E 11 17 6 9 1024.2 1024.2 0.0
20/05:30pm 19.7 16.0 9.3 51 5.5 ESE 19 24 10 13 1023.7 1023.7 0.0
20/05:00pm 21.1 17.2 7.3 41 7.1 S 17 22 9 12 1023.3 1023.3 0.0
20/04:30pm 20.4 16.3 8.7 47 6.1 S 20 26 11 14 1022.8 1022.8 0.0
20/04:00pm 21.0 17.5 8.6 45 6.5 S 17 20 9 11 1022.6 1022.6 0.0

Other Formats:

Comma delimited format used in spreadsheet applications
http://www.bom.gov.au/fwo/IDS60801/IDS60801.94658.axf

JavaScript Object Notation format (JSON) in row-major order
http://www.bom.gov.au/fwo/IDS60801/IDS60801.94658.json